Terminal Aerodrome Forecast
Issued by NWS

Home | Current Version | Previous Version | Text Only | Print | Product List | Glossary On
Versions: 1 2 3 4 5 6 7 8 9 10 11 12 13 14 15 16 17 18 19 20 21 22 23
000
FTUS41 KCLE 031100
TAFFDY
TAF
KFDY 031130Z 0312/0412 13008KT P6SM BKN050 OVC070
     FM031300 13010KT 6SM -SNPL BKN035 OVC060
     FM031600 14010KT 4SM -FZRAPL BR BKN015 OVC050
     FM031800 20015KT 2SM -RA BR BKN005 OVC015 WS020/22045KT
     FM040000 25015G25KT 6SM BR SCT005 OVC015
     FM040900 29012KT P6SM BKN015=

USA.gov is the U.S. government's official web portal to all federal, state and local government web resources and services.